Time;durP1;ratioP1;P1;durP2;ratioP2;P2;SDS_P1;SDS_P2;PMS_P1;PMS_P2;Temp;Humidity;BMP_temperature;BMP_pressure;BME280_temperature;BME280_humidity;BME280_pressure;Samples;Min_cycle;Max_cycle;Signal;HPM_P1;HPM_P2
2022/12/24 00:02:24;;;;;;;4.43;2.20;;;28.50;99.90;;;;;;5090410;28;20203;-83
2022/12/24 00:04:55;;;;;;;4.85;2.20;;;28.60;99.90;;;;;;5098472;28;20237;-84
2022/12/24 00:07:27;;;;;;;6.00;2.47;;;28.60;99.90;;;;;;5092763;28;20302;-85
2022/12/24 00:09:58;;;;;;;8.60;2.67;;;28.50;99.90;;;;;;5092948;28;20282;-85
2022/12/24 00:12:32;;;;;;;3.92;2.33;;;28.40;99.90;;;;;;5092204;28;20623;-85
2022/12/24 00:15:03;;;;;;;3.90;1.98;;;28.40;99.90;;;;;;5075456;28;20644;-85
2022/12/24 00:17:34;;;;;;;5.90;2.45;;;28.60;99.90;;;;;;5087602;28;20624;-85
2022/12/24 00:20:05;;;;;;;5.07;2.30;;;28.70;99.90;;;;;;5083853;28;20197;-85
2022/12/24 00:22:38;;;;;;;4.00;2.17;;;28.80;99.90;;;;;;5085816;28;20278;-85
2022/12/24 00:25:09;;;;;;;3.20;1.80;;;28.70;99.90;;;;;;5091803;28;20231;-85
2022/12/24 00:27:40;;;;;;;7.03;2.30;;;28.60;99.90;;;;;;5090042;28;20206;-85
2022/12/24 00:30:11;;;;;;;3.55;2.25;;;28.60;99.90;;;;;;5092045;28;20279;-85
2022/12/24 00:32:42;;;;;;;4.60;2.10;;;28.50;99.90;;;;;;5092544;28;20255;-85
2022/12/24 00:35:13;;;;;;;4.93;2.15;;;28.50;99.90;;;;;;5091656;28;20210;-85
2022/12/24 00:37:48;;;;;;;6.13;2.05;;;28.50;99.90;;;;;;5086130;28;20313;-85
2022/12/24 00:40:21;;;;;;;5.68;1.95;;;28.50;99.90;;;;;;5094082;28;20281;-84
2022/12/24 00:42:52;;;;;;;4.05;2.15;;;28.20;99.90;;;;;;5099003;28;20200;-81
2022/12/24 00:45:24;;;;;;;5.03;2.20;;;28.10;99.90;;;;;;5092855;28;20234;-84
2022/12/24 00:47:54;;;;;;;4.03;2.13;;;28.20;99.90;;;;;;5087799;28;20637;-82
2022/12/24 00:50:25;;;;;;;5.00;2.10;;;28.20;99.90;;;;;;5092176;28;20195;-83
2022/12/24 00:52:58;;;;;;;4.88;2.30;;;28.30;99.90;;;;;;5090590;28;20206;-84
2022/12/24 00:55:29;;;;;;;5.53;2.30;;;28.30;99.90;;;;;;5102524;28;20210;-84
2022/12/24 00:58:00;;;;;;;3.03;1.92;;;28.40;99.90;;;;;;5108950;28;20254;-84
2022/12/24 01:00:30;;;;;;;4.57;2.13;;;28.40;99.90;;;;;;5094566;28;20204;-83
2022/12/24 01:03:01;;;;;;;4.32;2.15;;;28.40;99.90;;;;;;5100002;28;20234;-84
2022/12/24 01:05:32;;;;;;;4.78;2.13;;;28.40;99.90;;;;;;5092708;28;20192;-84
2022/12/24 01:08:05;;;;;;;5.10;2.10;;;28.30;99.90;;;;;;5086585;28;20199;-83
2022/12/24 01:10:36;;;;;;;6.53;2.00;;;28.20;99.90;;;;;;5088324;28;20199;-85
2022/12/24 01:13:07;;;;;;;6.22;2.17;;;28.20;99.90;;;;;;5089979;28;20195;-85
2022/12/24 01:15:39;;;;;;;3.97;1.95;;;28.20;99.90;;;;;;5091496;28;20302;-84
2022/12/24 01:18:10;;;;;;;3.22;1.90;;;28.30;99.90;;;;;;5087322;28;20263;-84
2022/12/24 01:20:41;;;;;;;4.35;2.00;;;28.40;99.90;;;;;;5092236;28;20282;-85
2022/12/24 01:23:17;;;;;;;3.45;1.98;;;28.50;99.90;;;;;;5077709;28;20287;-85
2022/12/24 01:25:48;;;;;;;2.90;1.88;;;28.60;99.90;;;;;;5086879;28;20671;-85
2022/12/24 01:28:19;;;;;;;5.03;2.10;;;28.60;99.90;;;;;;5088654;28;20236;-83
2022/12/24 01:30:50;;;;;;;3.75;1.90;;;28.70;99.90;;;;;;5072623;28;20206;-82
2022/12/24 01:33:21;;;;;;;3.85;2.00;;;28.80;99.90;;;;;;5088700;28;20279;-82
2022/12/24 01:35:53;;;;;;;6.00;2.20;;;28.80;99.90;;;;;;5077106;28;20636;-81
2022/12/24 01:38:25;;;;;;;3.80;2.10;;;28.80;99.90;;;;;;5084288;28;20214;-82
2022/12/24 01:43:43;;;;;;;3.80;2.10;;;28.90;99.90;;;;;;5097019;28;20202;-84
2022/12/24 01:46:20;;;;;;;3.15;2.17;;;29.00;99.90;;;;;;5108834;28;20282;-83
2022/12/24 01:48:54;;;;;;;5.97;2.28;;;29.00;99.90;;;;;;5093365;28;20580;-84
2022/12/24 01:51:30;;;;;;;2.92;2.30;;;28.90;99.90;;;;;;5093999;28;20191;-84
2022/12/24 01:54:06;;;;;;;4.85;2.03;;;28.90;99.90;;;;;;5087829;28;20258;-84
2022/12/24 01:56:42;;;;;;;4.85;2.20;;;28.80;99.90;;;;;;5095173;28;20590;-84
2022/12/24 01:59:16;;;;;;;5.72;2.35;;;28.80;99.90;;;;;;5095679;28;20183;-86
2022/12/24 02:01:48;;;;;;;2.67;2.00;;;28.80;99.90;;;;;;5095760;28;20255;-84
2022/12/24 02:04:27;;;;;;;5.65;2.22;;;28.90;99.90;;;;;;5096232;28;20230;-83
2022/12/24 02:06:57;;;;;;;4.78;2.28;;;29.00;99.90;;;;;;5088493;28;20561;-84
2022/12/24 02:09:31;;;;;;;4.70;2.22;;;29.00;99.90;;;;;;5092482;28;20306;-84
2022/12/24 02:12:09;;;;;;;4.68;2.13;;;28.90;99.90;;;;;;5091620;28;20630;-83
2022/12/24 02:14:40;;;;;;;4.35;2.17;;;28.90;99.90;;;;;;5084792;28;20267;-82
2022/12/24 02:17:20;;;;;;;3.50;1.95;;;29.00;99.90;;;;;;5084798;28;20342;-83
2022/12/24 02:20:29;;;;;;;5.40;2.20;;;29.00;99.90;;;;;;5082989;28;20293;-84
2022/12/24 02:23:17;;;;;;;5.82;2.30;;;29.00;99.90;;;;;;5088283;28;20274;-85
2022/12/24 02:26:21;;;;;;;3.45;2.13;;;29.20;99.90;;;;;;5093434;28;20195;-84
2022/12/24 02:29:16;;;;;;;6.60;2.30;;;29.40;99.90;;;;;;5087138;28;20285;-82
2022/12/24 02:31:59;;;;;;;3.88;1.90;;;29.50;99.90;;;;;;5089917;28;20210;-83
2022/12/24 02:34:34;;;;;;;4.80;2.20;;;29.60;99.90;;;;;;5087364;28;20274;-83
2022/12/24 02:37:14;;;;;;;6.10;2.28;;;29.60;99.90;;;;;;5089803;28;20191;-83
2022/12/24 02:39:49;;;;;;;3.67;2.05;;;29.60;99.90;;;;;;5082763;28;20290;-83
2022/12/24 02:42:24;;;;;;;4.28;1.90;;;29.50;99.90;;;;;;5093824;28;20201;-83
2022/12/24 02:44:58;;;;;;;3.65;1.73;;;29.50;99.90;;;;;;5095254;28;20225;-81
2022/12/24 02:47:31;;;;;;;2.95;1.90;;;29.50;99.90;;;;;;5096075;28;20248;-81
2022/12/24 02:50:04;;;;;;;3.10;1.90;;;29.60;99.90;;;;;;5112158;28;20203;-83
2022/12/24 02:52:38;;;;;;;4.95;1.90;;;29.60;99.90;;;;;;5092059;28;20248;-81
2022/12/24 02:55:15;;;;;;;4.03;2.30;;;29.50;99.90;;;;;;5095773;28;20588;-82
2022/12/24 02:58:03;;;;;;;3.53;1.95;;;29.70;99.90;;;;;;5095048;28;20345;-82
2022/12/24 03:00:43;;;;;;;3.75;2.00;;;29.90;99.90;;;;;;5078482;28;20694;-83
2022/12/24 03:03:35;;;;;;;3.30;2.00;;;29.90;99.90;;;;;;5081157;28;20627;-81
2022/12/24 03:06:18;;;;;;;5.20;1.98;;;30.00;99.90;;;;;;5089562;28;20207;-81
2022/12/24 03:08:56;;;;;;;3.42;1.85;;;30.20;99.90;;;;;;5090394;28;20599;-82
2022/12/24 03:11:28;;;;;;;3.63;1.75;;;30.30;99.90;;;;;;5092636;28;20258;-82
2022/12/24 03:14:02;;;;;;;3.53;1.70;;;30.50;99.90;;;;;;5092788;28;20217;-81
2022/12/24 03:16:33;;;;;;;5.72;1.85;;;30.40;99.90;;;;;;5090947;28;20757;-80
2022/12/24 03:19:06;;;;;;;5.13;2.00;;;30.40;99.90;;;;;;5090061;28;20246;-81
2022/12/24 03:21:42;;;;;;;5.22;1.98;;;30.40;99.90;;;;;;5088804;28;20286;-81
2022/12/24 03:24:13;;;;;;;4.93;1.75;;;30.40;99.90;;;;;;5084951;28;20764;-81
2022/12/24 03:26:46;;;;;;;1.67;1.58;;;30.50;99.90;;;;;;5090203;28;20282;-81
2022/12/24 03:29:18;;;;;;;3.53;1.70;;;30.50;99.90;;;;;;5090424;28;20291;-81
2022/12/24 03:31:51;;;;;;;5.85;2.00;;;30.50;99.90;;;;;;5082578;28;20203;-81
2022/12/24 03:34:23;;;;;;;2.97;1.60;;;30.50;99.90;;;;;;5089798;28;20786;-81
2022/12/24 03:36:54;;;;;;;2.83;1.95;;;30.30;99.90;;;;;;5080398;28;20573;-81
2022/12/24 03:39:25;;;;;;;3.00;1.60;;;30.40;99.90;;;;;;5084765;28;20215;-80
2022/12/24 03:41:57;;;;;;;2.30;1.60;;;30.60;99.90;;;;;;5090923;28;20763;-80
2022/12/24 03:44:28;;;;;;;2.80;1.60;;;30.70;99.90;;;;;;5087604;28;20298;-81
2022/12/24 03:46:59;;;;;;;3.03;1.70;;;30.90;99.90;;;;;;5092526;28;20278;-82
2022/12/24 03:49:31;;;;;;;1.83;1.50;;;30.90;99.90;;;;;;5092657;28;20187;-82
2022/12/24 03:52:02;;;;;;;2.17;1.60;;;30.90;99.90;;;;;;5092364;28;20202;-79
2022/12/24 03:54:33;;;;;;;1.90;1.58;;;30.90;99.90;;;;;;5099104;28;20223;-80
2022/12/24 03:57:04;;;;;;;3.38;1.80;;;30.80;99.90;;;;;;5091521;28;20662;-81
2022/12/24 03:59:35;;;;;;;3.72;1.52;;;31.00;99.90;;;;;;5091294;28;20215;-81
2022/12/24 04:02:06;;;;;;;1.77;1.50;;;30.90;99.90;;;;;;5085915;28;20179;-80
2022/12/24 04:04:39;;;;;;;4.00;1.80;;;30.90;99.90;;;;;;5078623;28;20569;-81
2022/12/24 04:07:10;;;;;;;3.72;1.70;;;30.90;99.90;;;;;;5093330;28;20229;-82
2022/12/24 04:09:40;;;;;;;3.10;1.58;;;30.80;99.90;;;;;;5088988;28;20202;-81
2022/12/24 04:12:11;;;;;;;2.05;1.40;;;30.90;99.90;;;;;;5091902;28;20254;-81
2022/12/24 04:14:42;;;;;;;6.45;1.67;;;30.90;99.90;;;;;;5091899;28;20203;-82
2022/12/24 04:17:13;;;;;;;4.30;1.45;;;31.00;99.90;;;;;;5091975;28;20712;-81
2022/12/24 04:19:46;;;;;;;4.28;1.65;;;31.20;99.90;;;;;;5087016;28;20729;-81
2022/12/24 04:22:17;;;;;;;5.82;1.38;;;31.20;99.90;;;;;;5085980;28;20198;-82
2022/12/24 04:24:48;;;;;;;2.72;1.48;;;31.30;99.90;;;;;;5083378;28;20271;-81
2022/12/24 04:27:20;;;;;;;2.97;1.30;;;31.30;99.90;;;;;;5091724;28;20282;-81
2022/12/24 04:29:51;;;;;;;2.95;1.45;;;31.20;99.90;;;;;;5091176;28;20199;-82
2022/12/24 04:32:21;;;;;;;2.60;1.70;;;31.30;99.90;;;;;;5085182;28;20279;-82
2022/12/24 04:34:54;;;;;;;4.78;1.50;;;31.40;99.90;;;;;;5090371;28;20199;-82
2022/12/24 04:37:25;;;;;;;4.28;1.60;;;31.20;99.90;;;;;;5083187;28;20187;-82
2022/12/24 04:39:56;;;;;;;1.83;1.40;;;31.20;99.60;;;;;;5074839;28;20280;-81
2022/12/24 04:42:27;;;;;;;1.85;1.20;;;31.40;99.50;;;;;;5088504;28;20662;-82
2022/12/24 04:44:57;;;;;;;1.35;1.00;;;31.60;98.90;;;;;;5083626;28;20200;-82
2022/12/24 04:47:29;;;;;;;2.00;1.38;;;31.60;97.90;;;;;;5093912;28;20298;-82
2022/12/24 04:50:01;;;;;;;2.20;1.20;;;31.70;96.90;;;;;;5089954;28;20284;-82
2022/12/24 04:52:32;;;;;;;2.13;1.10;;;31.70;96.50;;;;;;5090086;28;20195;-82
2022/12/24 04:55:03;;;;;;;1.23;1.02;;;31.80;95.70;;;;;;5088448;28;20213;-82
2022/12/24 04:57:36;;;;;;;3.60;1.40;;;31.80;95.30;;;;;;5104652;28;20259;-87
2022/12/24 05:00:08;;;;;;;1.60;1.00;;;31.70;94.30;;;;;;5087128;28;20203;-87
2022/12/24 05:02:39;;;;;;;1.80;1.30;;;31.80;94.70;;;;;;5090568;28;20252;-87
2022/12/24 05:05:12;;;;;;;4.53;1.00;;;31.90;94.30;;;;;;5090910;28;20274;-87
2022/12/24 05:07:43;;;;;;;3.47;1.08;;;32.20;94.20;;;;;;5091758;28;20184;-87
2022/12/24 05:10:15;;;;;;;2.40;1.40;;;32.40;93.80;;;;;;5079873;28;20313;-87
2022/12/24 05:12:46;;;;;;;1.95;1.00;;;32.70;93.20;;;;;;5071862;28;20210;-86
2022/12/24 05:15:17;;;;;;;1.70;1.00;;;32.80;91.70;;;;;;5082537;28;20280;-86
2022/12/24 05:17:48;;;;;;;4.68;1.33;;;33.00;92.00;;;;;;5090804;28;20239;-86
2022/12/24 05:20:24;;;;;;;1.80;1.20;;;33.00;91.50;;;;;;5094768;28;20726;-85
2022/12/24 05:28:30;;;;;;;1.92;1.00;;;33.30;91.10;;;;;;5089899;28;20230;-87
2022/12/24 05:31:01;;;;;;;1.10;1.00;;;33.40;89.50;;;;;;5089736;28;20274;-83
2022/12/24 05:33:32;;;;;;;1.75;1.05;;;33.60;87.40;;;;;;5085604;28;20196;-86
2022/12/24 05:36:07;;;;;;;2.60;1.17;;;33.80;87.20;;;;;;5077822;28;20191;-86
2022/12/24 05:38:45;;;;;;;3.00;1.00;;;33.70;86.20;;;;;;5088795;28;20229;-86
2022/12/24 05:41:15;;;;;;;1.40;0.90;;;33.90;83.40;;;;;;5089067;28;20274;-87
2022/12/24 05:43:49;;;;;;;1.67;0.80;;;34.10;82.30;;;;;;5086687;28;20203;-86
2022/12/24 05:46:21;;;;;;;1.88;0.95;;;34.20;82.10;;;;;;5081818;28;20638;-86
2022/12/24 05:48:53;;;;;;;1.15;0.90;;;34.30;81.80;;;;;;5078050;28;20558;-86
2022/12/24 05:51:26;;;;;;;1.08;0.70;;;34.40;77.30;;;;;;5099381;28;20255;-87
2022/12/24 05:53:58;;;;;;;1.98;0.98;;;34.70;75.20;;;;;;5089408;28;20267;-88
2022/12/24 05:59:23;;;;;;;1.25;1.00;;;34.70;74.80;;;;;;5105485;28;20227;-82
2022/12/24 06:01:53;;;;;;;1.38;0.80;;;35.20;73.10;;;;;;5106263;28;20325;-82
2022/12/24 06:04:27;;;;;;;1.45;0.90;;;35.30;70.10;;;;;;5096786;28;20198;-81
2022/12/24 06:07:04;;;;;;;5.05;0.82;;;35.50;68.40;;;;;;5089939;28;20195;-82
2022/12/24 06:09:36;;;;;;;1.33;0.70;;;35.50;66.00;;;;;;5077501;28;20192;-81
2022/12/24 06:12:10;;;;;;;1.38;0.70;;;35.70;63.00;;;;;;5093532;28;20284;-82
2022/12/24 06:14:41;;;;;;;1.75;0.80;;;35.60;62.70;;;;;;5092926;28;20742;-82
2022/12/24 06:17:12;;;;;;;1.65;0.75;;;35.40;63.90;;;;;;5088841;28;20213;-81
2022/12/24 06:19:43;;;;;;;0.93;0.65;;;35.60;61.60;;;;;;5094450;28;20646;-82
2022/12/24 06:22:16;;;;;;;1.83;0.90;;;35.40;62.60;;;;;;5094412;28;20195;-81
2022/12/24 06:24:47;;;;;;;0.63;0.63;;;35.30;61.20;;;;;;5092693;28;20207;-80
2022/12/24 06:27:19;;;;;;;2.30;0.70;;;35.20;58.90;;;;;;5096725;28;20742;-83
2022/12/24 06:29:50;;;;;;;1.75;0.80;;;35.20;59.00;;;;;;5100907;28;20230;-82
2022/12/24 06:32:21;;;;;;;2.90;0.68;;;35.10;58.70;;;;;;5094116;28;20203;-81
2022/12/24 06:34:52;;;;;;;1.67;0.60;;;35.10;58.70;;;;;;5093347;28;20199;-81
2022/12/24 06:37:25;;;;;;;1.15;0.60;;;35.30;58.70;;;;;;5093923;28;20198;-81
2022/12/24 06:39:56;;;;;;;1.67;0.80;;;35.60;57.30;;;;;;5089569;28;20317;-80
2022/12/24 06:42:26;;;;;;;2.33;0.73;;;35.70;56.60;;;;;;5090195;28;20274;-80
2022/12/24 06:44:57;;;;;;;3.05;0.70;;;36.00;56.40;;;;;;5094422;28;20282;-80
2022/12/24 06:47:28;;;;;;;1.05;0.70;;;36.40;54.60;;;;;;5082703;28;20197;-81
2022/12/24 06:49:59;;;;;;;1.38;0.43;;;36.60;53.20;;;;;;5093970;28;20209;-81
2022/12/24 06:52:46;;;;;;;1.65;0.65;;;36.80;51.90;;;;;;5108554;28;20577;-81
2022/12/24 06:55:24;;;;;;;0.77;0.65;;;36.90;51.10;;;;;;5106883;28;20187;-82
2022/12/24 06:57:55;;;;;;;0.82;0.60;;;37.30;50.20;;;;;;5111097;28;20263;-81
2022/12/24 07:00:28;;;;;;;1.27;0.60;;;37.50;49.20;;;;;;5102295;28;20241;-81
2022/12/24 07:02:59;;;;;;;1.38;0.65;;;37.50;49.40;;;;;;5107027;28;20227;-78
2022/12/24 07:05:31;;;;;;;1.83;0.65;;;37.80;48.60;;;;;;5111317;28;20252;-81
2022/12/24 07:08:06;;;;;;;0.80;0.57;;;38.40;48.60;;;;;;5113916;28;20223;-80
2022/12/24 07:10:39;;;;;;;2.10;0.73;;;38.40;47.20;;;;;;5115903;28;20193;-83
2022/12/24 07:13:13;;;;;;;3.05;1.00;;;38.60;46.50;;;;;;5107791;28;20191;-86
2022/12/24 07:15:44;;;;;;;1.73;0.80;;;38.20;45.60;;;;;;5107802;28;20285;-86
2022/12/24 07:18:15;;;;;;;3.33;0.80;;;37.80;46.60;;;;;;5084750;28;20254;-86
2022/12/24 07:20:50;;;;;;;2.33;0.70;;;37.90;47.10;;;;;;5101566;28;20195;-82
2022/12/24 07:23:38;;;;;;;0.60;0.60;;;38.00;47.40;;;;;;5102795;28;20180;-82
2022/12/24 07:26:13;;;;;;;0.60;0.60;;;37.90;47.40;;;;;;5093116;28;20194;-84
2022/12/24 07:28:44;;;;;;;1.90;0.80;;;37.90;47.70;;;;;;5097018;28;20199;-82
2022/12/24 07:31:15;;;;;;;0.85;0.68;;;38.10;48.30;;;;;;5091644;28;20226;-81
2022/12/24 07:33:45;;;;;;;1.52;0.70;;;38.10;48.30;;;;;;5087885;28;20666;-82
2022/12/24 07:36:21;;;;;;;2.30;0.80;;;38.00;49.00;;;;;;5092327;28;20304;-81
2022/12/24 07:38:56;;;;;;;1.83;0.93;;;37.90;49.90;;;;;;5087989;28;20229;-81
2022/12/24 07:41:27;;;;;;;1.73;1.13;;;38.00;49.60;;;;;;5091014;28;20246;-82
2022/12/24 07:44:00;;;;;;;3.15;2.00;;;37.80;49.20;;;;;;5092017;28;20684;-82
2022/12/24 07:46:31;;;;;;;3.35;2.13;;;36.90;50.90;;;;;;5091787;28;20198;-82
2022/12/24 07:49:01;;;;;;;1.73;1.25;;;36.20;52.20;;;;;;5092238;28;20513;-82
2022/12/24 07:51:32;;;;;;;1.65;1.00;;;35.40;55.60;;;;;;5090976;28;20563;-82
2022/12/24 07:54:05;;;;;;;3.40;1.40;;;34.60;57.70;;;;;;5091257;28;20290;-82
2022/12/24 07:56:36;;;;;;;3.05;1.67;;;34.10;61.20;;;;;;5086931;28;20219;-82
2022/12/24 07:59:07;;;;;;;4.70;1.70;;;33.40;64.60;;;;;;5091032;28;20249;-82
2022/12/24 08:01:38;;;;;;;4.75;1.83;;;33.20;68.20;;;;;;5090989;28;22139;-82
2022/12/24 08:04:09;;;;;;;3.90;1.50;;;33.10;71.10;;;;;;5092704;28;20282;-82
2022/12/24 08:06:40;;;;;;;5.68;1.55;;;33.00;70.90;;;;;;5105949;28;20229;-82
2022/12/24 08:09:14;;;;;;;3.90;1.60;;;32.90;72.40;;;;;;5089550;28;20264;-83
2022/12/24 08:11:45;;;;;;;4.50;2.00;;;32.40;75.40;;;;;;5091820;28;20609;-83
2022/12/24 08:14:16;;;;;;;4.43;1.55;;;32.10;79.40;;;;;;5090560;28;20298;-83
2022/12/24 08:16:47;;;;;;;2.25;1.48;;;31.50;82.90;;;;;;5091540;28;20195;-83
2022/12/24 08:19:18;;;;;;;6.68;1.85;;;31.10;87.10;;;;;;5091932;28;20235;-83
2022/12/24 08:21:49;;;;;;;5.65;1.88;;;30.70;91.40;;;;;;5073015;28;20195;-82
2022/12/24 08:24:23;;;;;;;4.05;1.80;;;30.50;93.30;;;;;;5070440;28;20204;-81
2022/12/24 08:26:53;;;;;;;4.72;1.80;;;30.30;96.70;;;;;;5082250;28;20563;-82
2022/12/24 08:29:24;;;;;;;7.38;2.25;;;30.10;99.20;;;;;;5091076;28;20666;-83
2022/12/24 08:31:55;;;;;;;5.30;1.83;;;29.90;99.90;;;;;;5091343;28;20290;-82
2022/12/24 08:34:27;;;;;;;4.55;1.60;;;29.70;99.90;;;;;;5088591;28;20534;-82
2022/12/24 08:36:59;;;;;;;3.40;1.75;;;29.60;99.90;;;;;;5091394;28;20732;-82
2022/12/24 08:39:33;;;;;;;3.60;1.40;;;29.30;99.90;;;;;;5089373;28;20575;-82
2022/12/24 08:42:04;;;;;;;5.45;1.67;;;29.10;99.90;;;;;;5090575;28;20187;-81
2022/12/24 08:44:35;;;;;;;3.20;1.50;;;28.90;99.90;;;;;;5076422;28;20275;-81
2022/12/24 08:47:05;;;;;;;3.85;1.50;;;28.70;99.90;;;;;;5081387;28;20210;-81
2022/12/24 08:55:44;;;;;;;2.28;1.33;;;28.30;99.90;;;;;;5084488;28;20187;-81
2022/12/24 08:58:15;;;;;;;2.55;1.50;;;28.20;99.90;;;;;;5105682;28;20221;-80
2022/12/24 09:00:46;;;;;;;1.55;1.30;;;28.10;99.90;;;;;;5105585;28;20206;-81
2022/12/24 09:03:18;;;;;;;5.10;1.60;;;28.10;99.90;;;;;;5108586;28;20702;-81
2022/12/24 09:05:49;;;;;;;2.85;1.30;;;27.90;99.90;;;;;;5089607;28;20191;-81
2022/12/24 09:08:21;;;;;;;2.45;1.50;;;27.90;99.90;;;;;;5105028;28;20179;-79
2022/12/24 09:10:56;;;;;;;2.78;1.50;;;27.80;99.90;;;;;;5109001;28;20199;-81
2022/12/24 09:13:33;;;;;;;2.10;1.48;;;27.70;99.90;;;;;;5085801;28;20689;-80
2022/12/24 09:16:04;;;;;;;2.63;1.50;;;27.70;99.90;;;;;;5103579;28;20222;-82
2022/12/24 09:18:37;;;;;;;2.47;1.45;;;27.50;99.90;;;;;;5098243;28;20216;-82
2022/12/24 09:21:15;;;;;;;2.72;1.67;;;27.40;99.90;;;;;;5086473;28;20238;-80
2022/12/24 09:23:50;;;;;;;2.65;1.52;;;27.30;99.90;;;;;;5098149;28;20202;-80
2022/12/24 09:26:28;;;;;;;3.17;1.40;;;27.30;99.90;;;;;;5103982;28;20195;-80
2022/12/24 09:34:39;;;;;;;2.05;1.48;;;27.20;99.90;;;;;;5108465;28;20233;-81
2022/12/24 09:37:16;;;;;;;2.22;1.60;;;27.20;99.90;;;;;;5105333;28;20241;-82
2022/12/24 09:39:48;;;;;;;3.97;1.60;;;27.20;99.90;;;;;;5098684;28;20298;-80
2022/12/24 09:42:31;;;;;;;1.88;1.40;;;27.20;99.90;;;;;;5099377;28;20191;-81
2022/12/24 09:45:29;;;;;;;3.25;1.50;;;27.20;99.90;;;;;;5102028;28;20203;-81
2022/12/24 09:50:54;;;;;;;1.73;1.50;;;27.10;99.90;;;;;;5101516;28;20209;-82
2022/12/24 09:56:28;;;;;;;4.57;1.63;;;27.00;99.90;;;;;;5108530;28;20195;-82
2022/12/24 10:02:03;;;;;;;2.65;1.40;;;26.90;99.90;;;;;;5100808;28;20763;-82
2022/12/24 10:04:45;;;;;;;3.50;1.80;;;26.90;99.90;;;;;;5106420;28;20202;-81
2022/12/24 10:07:32;;;;;;;3.83;1.73;;;26.80;99.90;;;;;;5107582;28;20235;-81
2022/12/24 10:10:21;;;;;;;3.03;1.70;;;26.80;99.90;;;;;;5103404;28;20182;-80
2022/12/24 10:13:01;;;;;;;3.15;1.75;;;26.70;99.90;;;;;;5107821;28;20208;-83
2022/12/24 10:18:57;;;;;;;2.72;1.80;;;26.70;99.90;;;;;;5091211;28;20235;-81
2022/12/24 10:21:40;;;;;;;3.58;1.70;;;26.60;99.90;;;;;;5095375;28;20224;-83
2022/12/24 10:29:57;;;;;;;4.78;1.80;;;26.60;99.90;;;;;;5101345;28;20203;-82
2022/12/24 10:32:39;;;;;;;4.28;1.83;;;26.50;99.90;;;;;;5107197;28;20199;-82
2022/12/24 10:35:25;;;;;;;5.35;1.90;;;26.50;99.90;;;;;;5102689;28;20254;-83
2022/12/24 10:37:57;;;;;;;2.95;1.60;;;26.50;99.90;;;;;;5101565;28;20253;-85
2022/12/24 10:40:44;;;;;;;3.70;1.85;;;26.50;99.90;;;;;;5106865;28;20227;-86
2022/12/24 10:43:27;;;;;;;2.65;1.67;;;26.50;99.90;;;;;;5107312;28;20233;-87
2022/12/24 10:46:02;;;;;;;5.55;2.30;;;26.40;99.90;;;;;;5091891;28;20192;-86
2022/12/24 10:48:39;;;;;;;4.30;1.80;;;26.40;99.90;;;;;;5096102;28;20203;-86
2022/12/24 10:51:21;;;;;;;4.88;2.00;;;26.40;99.90;;;;;;5117759;28;20239;-87
2022/12/24 10:53:54;;;;;;;3.40;1.60;;;26.40;99.90;;;;;;5098964;28;20672;-86
2022/12/24 10:56:25;;;;;;;4.32;2.03;;;26.40;99.90;;;;;;5104146;28;20203;-87
2022/12/24 10:58:57;;;;;;;4.00;1.80;;;26.30;99.90;;;;;;5103289;28;20268;-86
2022/12/24 11:01:48;;;;;;;3.58;2.30;;;26.30;99.90;;;;;;5094682;28;20207;-89
2022/12/24 11:04:30;;;;;;;3.50;2.03;;;26.30;99.90;;;;;;5100357;28;20208;-88
2022/12/24 11:07:07;;;;;;;3.42;2.05;;;26.30;99.90;;;;;;5087704;28;20195;-89
2022/12/24 11:09:42;;;;;;;4.05;2.30;;;26.30;99.90;;;;;;5107274;28;20226;-88
2022/12/24 11:12:23;;;;;;;4.03;2.17;;;26.30;99.90;;;;;;5096332;28;20200;-90
2022/12/24 11:15:05;;;;;;;3.88;1.90;;;26.30;99.90;;;;;;5089788;28;20231;-90
2022/12/24 11:17:38;;;;;;;3.95;2.00;;;26.30;99.90;;;;;;5101667;28;20199;-89
2022/12/24 11:20:24;;;;;;;3.90;2.15;;;26.30;99.90;;;;;;5102019;28;20283;-89
2022/12/24 11:22:57;;;;;;;2.17;1.52;;;26.20;99.90;;;;;;5102902;28;20218;-88
2022/12/24 11:25:30;;;;;;;3.42;1.90;;;26.30;99.90;;;;;;5107315;28;20237;-89
2022/12/24 11:28:14;;;;;;;2.83;2.00;;;26.30;99.90;;;;;;5086345;28;20589;-86
2022/12/24 11:30:56;;;;;;;3.03;1.92;;;26.20;99.90;;;;;;5096470;28;20240;-86
2022/12/24 11:40:00;;;;;;;6.70;2.35;;;26.20;99.90;;;;;;5125751;28;20207;-85
2022/12/24 11:42:36;;;;;;;5.25;2.40;;;26.10;99.90;;;;;;5105723;28;20192;-85
2022/12/24 11:45:17;;;;;;;5.35;2.42;;;26.10;99.90;;;;;;5116051;28;20206;-86
2022/12/24 11:47:48;;;;;;;4.88;2.58;;;26.00;99.90;;;;;;5110315;28;20234;-87
2022/12/24 11:50:30;;;;;;;4.55;2.70;;;26.00;99.90;;;;;;5110503;28;20241;-86
2022/12/24 11:53:18;;;;;;;5.72;2.75;;;26.00;99.90;;;;;;5101226;28;20235;-87
2022/12/24 11:59:03;;;;;;;6.32;2.63;;;26.00;99.90;;;;;;5083084;28;20199;-86
2022/12/24 12:01:39;;;;;;;8.40;2.80;;;25.90;99.90;;;;;;5101726;28;20227;-86
2022/12/24 12:04:21;;;;;;;8.80;2.72;;;25.80;99.90;;;;;;5104336;28;20205;-85
2022/12/24 12:07:06;;;;;;;8.35;3.15;;;25.70;99.90;;;;;;5106507;28;20219;-82
2022/12/24 12:09:46;;;;;;;11.93;3.10;;;25.70;99.90;;;;;;5112628;28;20263;-84
2022/12/24 12:12:27;;;;;;;6.63;2.70;;;25.70;99.90;;;;;;5101778;28;20255;-84
2022/12/24 12:14:59;;;;;;;5.13;2.50;;;25.60;99.90;;;;;;5088376;28;20227;-84
2022/12/24 12:17:40;;;;;;;5.57;3.00;;;25.60;99.90;;;;;;5082569;28;20278;-84
2022/12/24 12:20:17;;;;;;;6.35;3.33;;;25.50;99.90;;;;;;5092690;28;20226;-84
2022/12/24 12:22:54;;;;;;;4.15;3.13;;;25.50;99.90;;;;;;5092555;28;20210;-83
2022/12/24 12:25:32;;;;;;;6.53;3.50;;;25.40;99.90;;;;;;5092214;28;20205;-84
2022/12/24 12:28:05;;;;;;;4.13;2.92;;;25.40;99.90;;;;;;5091397;28;20199;-84
2022/12/24 12:30:41;;;;;;;4.47;2.95;;;25.30;99.90;;;;;;5092269;28;20206;-84
2022/12/24 12:33:21;;;;;;;4.68;2.80;;;25.30;99.90;;;;;;5092735;28;20663;-83
2022/12/24 12:35:52;;;;;;;3.97;2.45;;;25.20;99.90;;;;;;5090978;28;20195;-84
2022/12/24 12:38:27;;;;;;;5.65;2.80;;;25.20;99.90;;;;;;5083943;28;20279;-84
2022/12/24 12:41:15;;;;;;;3.78;3.28;;;25.20;99.90;;;;;;5099116;28;20313;-84
2022/12/24 12:44:17;;;;;;;5.43;3.47;;;25.20;99.90;;;;;;5093353;28;20195;-84
2022/12/24 12:47:04;;;;;;;8.38;3.90;;;25.10;99.90;;;;;;5086027;28;20282;-84
2022/12/24 12:49:45;;;;;;;6.50;3.90;;;24.90;99.90;;;;;;5097757;28;20274;-85
2022/12/24 12:52:25;;;;;;;7.88;4.07;;;24.90;99.90;;;;;;5096261;28;20299;-85
2022/12/24 12:55:22;;;;;;;8.10;4.53;;;24.80;99.90;;;;;;5094843;28;20195;-84
2022/12/24 12:57:59;;;;;;;8.95;4.45;;;24.80;99.90;;;;;;5080761;28;20274;-82
2022/12/24 13:00:41;;;;;;;8.43;4.80;;;24.80;99.90;;;;;;5098353;28;20306;-84
2022/12/24 13:03:40;;;;;;;11.48;5.13;;;24.80;99.90;;;;;;5090128;28;20191;-83
2022/12/24 13:06:28;;;;;;;12.75;5.78;;;24.70;99.90;;;;;;5087232;28;20195;-84
2022/12/24 13:09:25;;;;;;;13.05;5.70;;;24.70;99.90;;;;;;5092831;28;20195;-85
2022/12/24 13:12:16;;;;;;;13.05;5.68;;;24.70;99.90;;;;;;5090668;28;20283;-84
2022/12/24 13:15:07;;;;;;;13.27;5.32;;;24.60;99.90;;;;;;5096046;28;20282;-84
2022/12/24 13:18:07;;;;;;;15.82;6.03;;;24.50;99.90;;;;;;5100219;28;20191;-85
2022/12/24 13:20:41;;;;;;;12.70;5.75;;;24.50;99.90;;;;;;5081602;28;20222;-85
2022/12/24 13:23:16;;;;;;;13.95;5.90;;;24.50;99.90;;;;;;5094678;28;20556;-86
2022/12/24 13:25:49;;;;;;;12.82;6.50;;;24.40;99.90;;;;;;5074720;28;20196;-85
2022/12/24 13:28:35;;;;;;;16.40;7.07;;;24.40;99.90;;;;;;5085596;28;20199;-85
2022/12/24 13:31:28;;;;;;;13.00;6.95;;;24.40;99.90;;;;;;5091786;28;20199;-86
2022/12/24 13:34:04;;;;;;;15.13;7.88;;;24.30;99.90;;;;;;5090837;28;20541;-85
2022/12/24 13:37:06;;;;;;;14.88;7.10;;;24.30;99.90;;;;;;5089151;28;20224;-85
2022/12/24 13:40:04;;;;;;;13.57;7.28;;;24.30;99.90;;;;;;5092472;28;20203;-85
2022/12/24 13:42:52;;;;;;;13.25;7.32;;;24.30;99.90;;;;;;5083065;28;20194;-86
2022/12/24 13:45:44;;;;;;;12.45;6.53;;;24.20;99.90;;;;;;5098945;28;20202;-86
2022/12/24 13:48:35;;;;;;;14.93;6.95;;;24.10;99.90;;;;;;5094779;28;20368;-85
2022/12/24 13:51:25;;;;;;;14.60;7.00;;;24.10;99.90;;;;;;5083211;28;20203;-86
2022/12/24 13:54:01;;;;;;;12.20;6.20;;;24.10;99.90;;;;;;5097188;28;20623;-85
2022/12/24 13:56:38;;;;;;;13.35;7.10;;;24.00;99.90;;;;;;5097802;28;20725;-85
2022/12/24 13:59:26;;;;;;;12.57;6.60;;;23.90;99.90;;;;;;5095992;28;20218;-85
2022/12/24 14:01:57;;;;;;;14.02;6.50;;;23.90;99.90;;;;;;5082415;28;20662;-83
2022/12/24 14:04:33;;;;;;;14.00;6.10;;;23.90;99.90;;;;;;5091122;28;20199;-83
2022/12/24 14:07:08;;;;;;;14.75;6.53;;;23.90;99.90;;;;;;5089470;28;20278;-83
2022/12/24 14:09:39;;;;;;;13.35;5.88;;;23.90;99.90;;;;;;5095479;28;20205;-83
2022/12/24 14:12:35;;;;;;;13.70;5.72;;;23.90;99.90;;;;;;5097913;28;20297;-82
2022/12/24 14:15:37;;;;;;;13.65;5.70;;;23.90;99.90;;;;;;5096265;28;20241;-82
2022/12/24 14:18:08;;;;;;;14.45;5.40;;;23.90;99.90;;;;;;5108711;28;20236;-83
2022/12/24 14:20:45;;;;;;;14.38;5.70;;;23.90;99.90;;;;;;5087916;28;20749;-85